Time;durP1;ratioP1;P1;durP2;ratioP2;P2;SDS_P1;SDS_P2;PMS_P1;PMS_P2;Temp;Humidity;BMP_temperature;BMP_pressure;BME280_temperature;BME280_humidity;BME280_pressure;Samples;Min_cycle;Max_cycle;Signal;HPM_P1;HPM_P2
2022/09/11 00:01:13;;;;;;;1.33;1.00;;;12.10;99.90;;;;;;4979611;28;20041;-56
2022/09/11 00:03:42;;;;;;;4.88;1.40;;;12.10;99.90;;;;;;4972401;28;20055;-56
2022/09/11 00:06:12;;;;;;;1.45;1.00;;;12.10;99.90;;;;;;4964188;28;20045;-56
2022/09/11 00:08:41;;;;;;;2.90;1.13;;;12.10;99.90;;;;;;4965484;28;20062;-57
2022/09/11 00:11:16;;;;;;;6.93;1.23;;;12.00;99.90;;;;;;4976479;28;20776;-56
2022/09/11 00:13:48;;;;;;;3.67;1.30;;;12.00;99.90;;;;;;4973429;28;20060;-56
2022/09/11 00:16:27;;;;;;;2.58;1.00;;;12.00;99.90;;;;;;4975598;28;20056;-55
2022/09/11 00:18:57;;;;;;;3.33;1.10;;;11.90;99.90;;;;;;4975713;28;20120;-56
2022/09/11 00:21:25;;;;;;;1.52;1.20;;;11.90;99.90;;;;;;4977866;28;20526;-57
2022/09/11 00:23:52;;;;;;;2.40;1.15;;;11.80;99.90;;;;;;4971818;28;20038;-56
2022/09/11 00:26:20;;;;;;;3.05;1.40;;;11.80;99.90;;;;;;4971554;28;20042;-56
2022/09/11 00:28:49;;;;;;;1.10;1.00;;;11.70;99.90;;;;;;4971958;28;20042;-58
2022/09/11 00:31:19;;;;;;;7.00;0.98;;;11.70;99.90;;;;;;4980878;28;20380;-56
2022/09/11 00:33:46;;;;;;;9.68;1.25;;;11.70;99.90;;;;;;4962947;28;20621;-57
2022/09/11 00:36:19;;;;;;;4.28;1.45;;;11.70;99.90;;;;;;4970308;28;20053;-57
2022/09/11 00:38:49;;;;;;;2.35;1.33;;;11.70;99.90;;;;;;4978754;28;20044;-56
2022/09/11 00:41:20;;;;;;;5.38;1.27;;;11.70;99.90;;;;;;4963492;28;20614;-57
2022/09/11 00:44:27;;;;;;;6.90;1.48;;;11.70;99.90;;;;;;4971993;28;20141;-57
2022/09/11 00:46:57;;;;;;;2.67;1.38;;;11.70;99.90;;;;;;4902701;28;20534;-56
2022/09/11 00:49:39;;;;;;;2.13;1.38;;;11.70;99.90;;;;;;4962169;28;20126;-56
2022/09/11 00:52:26;;;;;;;2.97;1.35;;;11.70;99.90;;;;;;4972785;28;20033;-57
2022/09/11 00:55:00;;;;;;;2.17;1.30;;;11.70;99.90;;;;;;4971654;28;20285;-56
2022/09/11 00:57:31;;;;;;;5.28;1.65;;;11.70;99.90;;;;;;4974000;28;20368;-56
2022/09/11 01:00:01;;;;;;;6.82;1.23;;;11.70;99.90;;;;;;4975297;28;20786;-57
2022/09/11 01:02:32;;;;;;;1.77;1.63;;;11.70;99.90;;;;;;4981384;28;20041;-57
2022/09/11 01:04:59;;;;;;;4.45;1.40;;;11.80;99.90;;;;;;4976136;28;20056;-57
2022/09/11 01:07:29;;;;;;;5.10;1.50;;;11.80;99.90;;;;;;4973831;28;20203;-57
2022/09/11 01:09:58;;;;;;;5.05;1.45;;;11.80;99.90;;;;;;4959625;28;20210;-55
2022/09/11 01:12:52;;;;;;;1.63;1.10;;;11.80;99.90;;;;;;4979159;28;20570;-56
2022/09/11 01:15:29;;;;;;;4.05;1.40;;;11.80;99.90;;;;;;4953235;28;20064;-55
2022/09/11 01:18:29;;;;;;;4.03;1.25;;;11.80;99.90;;;;;;4966088;28;20043;-56
2022/09/11 01:21:07;;;;;;;3.33;1.30;;;11.80;99.90;;;;;;4976845;28;20045;-56
2022/09/11 01:23:45;;;;;;;5.22;1.58;;;11.90;99.90;;;;;;4969320;28;20102;-56
2022/09/11 01:26:15;;;;;;;2.78;1.33;;;11.90;99.90;;;;;;4970118;28;20728;-56
2022/09/11 01:28:51;;;;;;;5.20;1.67;;;11.80;99.90;;;;;;4973169;28;20152;-56
2022/09/11 01:31:23;;;;;;;3.65;2.33;;;11.80;99.90;;;;;;4980296;28;20407;-56
2022/09/11 01:33:55;;;;;;;4.45;1.80;;;11.90;99.90;;;;;;4974941;28;20099;-56
2022/09/11 01:36:32;;;;;;;7.82;1.40;;;11.90;99.90;;;;;;4962572;28;20400;-56
2022/09/11 01:39:02;;;;;;;4.33;1.70;;;11.80;99.90;;;;;;4980706;28;20908;-55
2022/09/11 01:41:47;;;;;;;4.93;1.80;;;11.80;99.90;;;;;;4974837;28;20124;-56
2022/09/11 01:44:26;;;;;;;6.22;1.38;;;11.80;99.90;;;;;;4974099;28;20029;-56
2022/09/11 01:46:54;;;;;;;3.30;1.63;;;11.80;99.90;;;;;;4955338;28;20044;-57
2022/09/11 01:50:02;;;;;;;8.30;1.58;;;11.80;99.90;;;;;;4973725;28;20041;-56
2022/09/11 01:52:49;;;;;;;3.42;1.48;;;11.80;99.90;;;;;;4958856;28;20345;-56
2022/09/11 01:55:27;;;;;;;5.03;1.77;;;11.80;99.90;;;;;;4967485;28;20041;-55
2022/09/11 01:58:00;;;;;;;7.43;1.40;;;11.90;99.90;;;;;;4948458;28;20045;-55
2022/09/11 02:00:30;;;;;;;7.50;2.88;;;11.90;99.90;;;;;;4970434;28;20284;-56
2022/09/11 02:03:04;;;;;;;2.38;1.42;;;11.90;99.90;;;;;;4963042;28;20048;-56
2022/09/11 02:05:42;;;;;;;2.55;1.60;;;11.90;99.90;;;;;;4977299;28;20052;-54
2022/09/11 02:08:17;;;;;;;4.72;1.83;;;11.90;99.90;;;;;;4974393;28;20049;-56
2022/09/11 02:10:53;;;;;;;4.47;1.30;;;11.90;99.90;;;;;;4971258;28;20046;-55
2022/09/11 02:13:46;;;;;;;5.55;2.17;;;12.00;99.90;;;;;;4969624;28;20041;-55
2022/09/11 02:16:24;;;;;;;3.92;1.45;;;12.00;99.90;;;;;;4937373;28;20442;-55
2022/09/11 02:19:06;;;;;;;6.15;1.70;;;11.90;99.90;;;;;;4975691;28;20033;-57
2022/09/11 02:21:34;;;;;;;1.75;1.25;;;12.00;99.90;;;;;;4980382;28;20048;-57
2022/09/11 02:24:08;;;;;;;4.97;1.67;;;11.90;99.90;;;;;;4974685;28;20056;-57
2022/09/11 02:26:40;;;;;;;3.47;1.45;;;12.00;99.90;;;;;;4958208;28;20629;-56
2022/09/11 02:29:10;;;;;;;5.60;1.70;;;12.00;99.90;;;;;;4984064;28;20068;-55
2022/09/11 02:31:38;;;;;;;8.65;1.92;;;12.00;99.90;;;;;;4991760;28;20587;-55
2022/09/11 02:34:05;;;;;;;4.22;1.23;;;12.00;99.90;;;;;;4970164;28;20061;-56
2022/09/11 02:36:41;;;;;;;3.33;1.67;;;12.00;99.90;;;;;;4971237;28;20049;-56
2022/09/11 02:39:35;;;;;;;3.83;1.40;;;12.00;99.90;;;;;;4973480;28;20144;-56
2022/09/11 02:42:23;;;;;;;4.72;1.50;;;12.00;99.90;;;;;;4968291;28;20356;-56
2022/09/11 02:45:30;;;;;;;1.98;1.13;;;12.00;99.90;;;;;;4969607;28;20038;-55
2022/09/11 02:48:11;;;;;;;4.13;1.33;;;12.00;99.90;;;;;;4960511;28;20783;-54
2022/09/11 02:51:00;;;;;;;7.63;1.35;;;12.10;99.90;;;;;;4972700;28;20234;-57
2022/09/11 02:54:04;;;;;;;6.35;1.75;;;12.10;99.90;;;;;;4981675;28;20812;-55
2022/09/11 02:56:43;;;;;;;4.63;1.60;;;12.10;99.90;;;;;;4963946;28;20798;-55
2022/09/11 02:59:42;;;;;;;3.17;1.40;;;12.10;99.90;;;;;;4977959;28;20150;-57
2022/09/11 03:02:14;;;;;;;3.55;1.17;;;12.10;99.90;;;;;;4958709;28;20230;-56
2022/09/11 03:04:41;;;;;;;2.00;1.10;;;12.20;99.90;;;;;;4987641;28;20584;-55
2022/09/11 03:07:08;;;;;;;1.90;1.40;;;12.20;99.90;;;;;;4979495;28;20029;-55
2022/09/11 03:09:36;;;;;;;4.53;1.42;;;12.20;99.90;;;;;;4975375;28;20570;-56
2022/09/11 03:12:10;;;;;;;5.35;1.30;;;12.20;99.90;;;;;;4965219;28;20195;-56
2022/09/11 03:14:37;;;;;;;3.10;1.70;;;12.20;99.90;;;;;;4970918;28;20952;-57
2022/09/11 03:17:05;;;;;;;3.88;1.25;;;12.20;99.90;;;;;;4982124;28;20397;-56
2022/09/11 03:19:34;;;;;;;5.22;1.40;;;12.20;99.90;;;;;;4981681;28;20037;-57
2022/09/11 03:22:02;;;;;;;2.00;1.05;;;12.20;99.90;;;;;;4982052;28;20356;-56
2022/09/11 03:24:29;;;;;;;4.80;1.60;;;12.10;99.90;;;;;;4970720;28;20205;-56
2022/09/11 03:26:56;;;;;;;1.73;1.08;;;12.10;99.90;;;;;;4975756;28;20194;-57
2022/09/11 03:29:23;;;;;;;1.77;1.10;;;12.00;99.90;;;;;;4965115;28;20045;-57
2022/09/11 03:31:52;;;;;;;2.63;1.13;;;12.00;99.90;;;;;;4976196;28;20059;-57
2022/09/11 03:34:19;;;;;;;5.47;1.23;;;12.00;99.90;;;;;;4982506;28;20049;-57
2022/09/11 03:36:46;;;;;;;1.77;1.30;;;11.90;99.90;;;;;;4976300;28;20496;-57
2022/09/11 03:39:14;;;;;;;9.45;1.95;;;11.90;99.90;;;;;;4981157;28;20613;-57
2022/09/11 03:41:41;;;;;;;4.10;1.13;;;11.80;99.90;;;;;;4977421;28;20203;-56
2022/09/11 03:44:08;;;;;;;3.40;1.45;;;11.90;99.90;;;;;;4976086;28;20033;-57
2022/09/11 03:46:35;;;;;;;2.55;1.10;;;11.80;99.90;;;;;;4976695;28;20041;-57
2022/09/11 03:49:02;;;;;;;3.08;1.17;;;11.80;99.90;;;;;;4981117;28;20075;-57
2022/09/11 03:51:30;;;;;;;5.25;1.50;;;11.80;99.90;;;;;;4970347;28;20260;-56
2022/09/11 03:53:59;;;;;;;7.50;2.10;;;11.80;99.90;;;;;;4970509;28;20052;-56
2022/09/11 03:56:29;;;;;;;5.45;1.77;;;11.80;99.90;;;;;;4968307;28;20163;-57
2022/09/11 03:58:57;;;;;;;4.22;1.25;;;11.80;99.90;;;;;;4980764;28;20210;-56
2022/09/11 04:01:26;;;;;;;1.65;1.55;;;11.90;99.90;;;;;;4979537;28;20049;-57
2022/09/11 04:03:53;;;;;;;7.50;1.75;;;11.90;99.90;;;;;;4969681;28;20322;-57
2022/09/11 04:06:26;;;;;;;2.92;1.40;;;12.00;99.90;;;;;;4975146;28;20041;-57
2022/09/11 04:08:55;;;;;;;5.80;1.60;;;12.00;99.90;;;;;;4964925;28;20682;-55
2022/09/11 04:11:21;;;;;;;6.28;1.35;;;12.00;99.90;;;;;;4969606;28;20377;-56
2022/09/11 04:13:50;;;;;;;8.13;1.10;;;12.00;99.90;;;;;;4979659;28;20179;-57
2022/09/11 04:16:18;;;;;;;1.80;1.40;;;12.00;99.90;;;;;;4978683;28;20054;-55
2022/09/11 04:18:53;;;;;;;3.13;1.65;;;12.00;99.90;;;;;;4966057;28;20733;-55
2022/09/11 04:21:20;;;;;;;6.18;1.50;;;12.00;99.90;;;;;;4972431;28;20064;-57
2022/09/11 04:23:53;;;;;;;3.67;1.73;;;12.00;99.90;;;;;;4974616;28;20048;-57
2022/09/11 04:26:25;;;;;;;8.45;1.88;;;12.00;99.90;;;;;;4981244;28;20060;-57
2022/09/11 04:28:58;;;;;;;;;;;12.00;99.90;;;;;;4955700;28;20064;-57
2022/09/11 04:31:26;;;;;;;5.38;2.50;;;12.10;99.90;;;;;;4970085;28;19920;-58
2022/09/11 04:33:55;;;;;;;3.28;2.08;;;12.10;99.90;;;;;;4962982;28;20956;-56
2022/09/11 04:36:28;;;;;;;2.97;2.03;;;12.10;99.90;;;;;;4971023;28;20760;-57
2022/09/11 04:38:57;;;;;;;4.45;2.20;;;12.20;99.90;;;;;;4973920;28;20037;-56
2022/09/11 04:41:25;;;;;;;3.08;2.42;;;12.20;99.90;;;;;;4957459;28;20048;-57
2022/09/11 04:43:59;;;;;;;3.75;1.70;;;12.20;99.90;;;;;;4965047;28;20214;-57
2022/09/11 04:46:33;;;;;;;7.35;2.53;;;12.20;99.90;;;;;;4971930;28;20915;-57
2022/09/11 04:49:07;;;;;;;5.13;2.40;;;12.30;99.90;;;;;;4964986;28;20616;-56
2022/09/11 04:51:35;;;;;;;4.47;3.35;;;12.30;99.90;;;;;;4968503;28;20056;-55
2022/09/11 04:54:04;;;;;;;5.10;2.85;;;12.30;99.90;;;;;;4982369;28;20044;-57
2022/09/11 04:56:36;;;;;;;7.55;2.42;;;12.30;99.90;;;;;;4974933;28;20037;-57
2022/09/11 04:59:14;;;;;;;4.05;1.90;;;12.40;99.90;;;;;;4965106;28;20570;-55
2022/09/11 05:01:49;;;;;;;4.32;1.60;;;12.40;99.90;;;;;;4974527;28;20041;-55
2022/09/11 05:04:19;;;;;;;5.22;1.52;;;12.40;99.90;;;;;;4976374;28;20559;-56
2022/09/11 05:06:53;;;;;;;6.40;1.50;;;12.40;99.90;;;;;;4981805;28;20168;-57
2022/09/11 05:09:20;;;;;;;2.00;1.42;;;12.40;99.90;;;;;;4977894;28;20045;-56
2022/09/11 05:11:49;;;;;;;3.67;1.60;;;12.40;99.90;;;;;;4965891;28;20159;-57
2022/09/11 05:14:17;;;;;;;4.05;1.38;;;12.40;99.90;;;;;;4987572;28;20966;-56
2022/09/11 05:16:47;;;;;;;5.70;1.30;;;12.40;99.90;;;;;;4974205;28;20056;-57
2022/09/11 05:19:16;;;;;;;7.32;1.60;;;12.40;99.90;;;;;;4973364;28;20044;-56
2022/09/11 05:21:44;;;;;;;17.15;4.15;;;12.40;99.90;;;;;;4963734;28;20855;-56
2022/09/11 05:24:13;;;;;;;3.30;1.63;;;12.40;99.90;;;;;;4979251;28;20045;-56
2022/09/11 05:26:40;;;;;;;7.30;1.58;;;12.40;99.90;;;;;;4962991;28;20344;-56
2022/09/11 05:29:11;;;;;;;3.92;1.70;;;12.40;99.90;;;;;;4978039;28;20203;-57
2022/09/11 05:31:54;;;;;;;4.85;1.33;;;12.40;99.90;;;;;;4959748;28;20570;-57
2022/09/11 05:34:23;;;;;;;1.23;1.13;;;12.50;99.90;;;;;;4981815;28;20115;-58
2022/09/11 05:36:51;;;;;;;8.48;1.58;;;12.50;99.90;;;;;;4993344;28;20637;-55
2022/09/11 05:39:18;;;;;;;2.50;1.50;;;12.50;99.90;;;;;;4978056;28;20554;-57
2022/09/11 05:41:50;;;;;;;3.83;1.20;;;12.50;99.90;;;;;;4980902;28;20044;-57
2022/09/11 05:44:18;;;;;;;6.10;1.48;;;12.50;99.90;;;;;;4981161;28;20053;-57
2022/09/11 05:46:45;;;;;;;3.75;1.23;;;12.50;99.90;;;;;;4977205;28;20033;-56
2022/09/11 05:49:12;;;;;;;4.40;1.33;;;12.40;99.90;;;;;;4978012;28;20960;-56
2022/09/11 05:51:40;;;;;;;2.03;1.10;;;12.50;99.90;;;;;;4981323;28;20527;-56
2022/09/11 05:54:07;;;;;;;8.55;1.42;;;12.50;99.90;;;;;;4978616;28;20150;-55
2022/09/11 05:56:35;;;;;;;4.93;1.50;;;12.50;99.90;;;;;;4972476;28;20447;-55
2022/09/11 05:59:15;;;;;;;5.05;1.60;;;12.40;99.90;;;;;;4976570;28;20037;-55
2022/09/11 06:01:46;;;;;;;3.40;2.15;;;12.50;99.90;;;;;;4966544;28;20225;-55
2022/09/11 06:04:20;;;;;;;6.72;1.67;;;12.50;99.90;;;;;;4981958;28;20041;-56
2022/09/11 06:06:50;;;;;;;7.45;1.40;;;12.50;99.90;;;;;;4967776;28;20228;-55
2022/09/11 06:09:18;;;;;;;7.80;1.60;;;12.50;99.90;;;;;;4970473;28;20256;-56
2022/09/11 06:11:46;;;;;;;10.23;1.77;;;12.50;99.90;;;;;;4976005;28;20077;-56
2022/09/11 06:14:13;;;;;;;3.80;1.35;;;12.50;99.90;;;;;;4978051;28;20201;-55
2022/09/11 06:16:42;;;;;;;1.38;1.27;;;12.50;99.90;;;;;;4980919;28;20344;-54
2022/09/11 06:19:13;;;;;;;5.32;1.60;;;12.60;99.90;;;;;;4992622;28;20387;-55
2022/09/11 06:21:40;;;;;;;2.10;1.23;;;12.60;99.90;;;;;;4981974;28;20041;-54
2022/09/11 06:24:22;;;;;;;3.25;1.33;;;12.60;99.90;;;;;;4975866;28;20164;-55
2022/09/11 06:26:50;;;;;;;2.17;1.60;;;12.70;99.90;;;;;;4985899;28;20048;-55
2022/09/11 06:29:18;;;;;;;2.45;1.45;;;12.70;99.90;;;;;;4976255;28;20469;-55
2022/09/11 06:31:50;;;;;;;3.38;1.10;;;12.80;99.90;;;;;;4978288;28;20041;-55
2022/09/11 06:34:21;;;;;;;5.85;1.45;;;12.80;99.90;;;;;;4983098;28;20656;-56
2022/09/11 06:36:49;;;;;;;1.48;1.10;;;12.80;99.90;;;;;;4982407;28;20055;-55
2022/09/11 06:39:19;;;;;;;1.23;1.00;;;12.90;99.90;;;;;;4973198;28;20118;-55
2022/09/11 06:41:46;;;;;;;3.53;1.17;;;12.90;99.90;;;;;;4973955;28;20044;-55
2022/09/11 06:44:14;;;;;;;1.73;0.88;;;12.90;99.90;;;;;;4970835;28;20037;-55
2022/09/11 06:46:43;;;;;;;1.52;1.00;;;12.90;99.90;;;;;;4980836;28;20041;-55
2022/09/11 06:49:13;;;;;;;1.30;1.13;;;12.90;99.90;;;;;;4966771;28;20346;-55
2022/09/11 06:51:58;;;;;;;4.10;1.02;;;12.90;99.90;;;;;;4982887;28;20360;-56
2022/09/11 06:54:27;;;;;;;3.00;1.20;;;13.00;99.90;;;;;;4982759;28;20336;-55
2022/09/11 06:56:55;;;;;;;1.83;1.27;;;13.00;99.90;;;;;;4992036;28;20360;-55
2022/09/11 06:59:37;;;;;;;3.65;1.10;;;13.00;99.90;;;;;;4981590;28;20146;-56
2022/09/11 07:02:13;;;;;;;2.63;1.10;;;13.00;99.90;;;;;;4992276;28;20041;-56
2022/09/11 07:04:43;;;;;;;2.25;1.05;;;13.00;99.90;;;;;;4967522;28;20976;-56
2022/09/11 07:07:10;;;;;;;1.88;0.95;;;13.00;99.90;;;;;;4984358;28;20052;-56
2022/09/11 07:09:39;;;;;;;4.55;1.27;;;13.00;99.90;;;;;;4966979;28;20041;-56
2022/09/11 07:12:07;;;;;;;3.75;1.00;;;13.00;99.90;;;;;;4974097;28;20036;-56
2022/09/11 07:14:37;;;;;;;4.20;1.17;;;13.00;99.90;;;;;;4976526;28;20293;-55
2022/09/11 07:17:10;;;;;;;3.83;1.42;;;13.10;99.90;;;;;;4972118;28;20046;-55
2022/09/11 07:19:39;;;;;;;2.72;1.10;;;13.10;99.90;;;;;;4966791;28;20041;-54
2022/09/11 07:22:07;;;;;;;2.25;1.13;;;13.10;99.90;;;;;;4976770;28;20037;-53
2022/09/11 07:24:34;;;;;;;2.33;1.30;;;13.20;99.90;;;;;;4976958;28;20112;-54
2022/09/11 07:27:01;;;;;;;3.03;1.50;;;13.20;99.90;;;;;;4977761;28;20036;-53
2022/09/11 07:29:33;;;;;;;3.80;1.33;;;13.30;99.90;;;;;;4962570;28;20071;-54
2022/09/11 07:32:00;;;;;;;3.72;1.60;;;13.40;99.90;;;;;;4981750;28;20041;-55
2022/09/11 07:34:28;;;;;;;3.72;1.17;;;13.50;99.90;;;;;;4981429;28;20231;-53
2022/09/11 07:36:57;;;;;;;1.05;0.98;;;13.60;99.90;;;;;;4981455;28;20925;-53
2022/09/11 07:39:26;;;;;;;2.90;1.13;;;13.70;99.90;;;;;;4972230;28;20203;-53
2022/09/11 07:42:02;;;;;;;1.80;1.00;;;13.80;99.90;;;;;;4968550;28;20700;-55
2022/09/11 07:44:32;;;;;;;1.42;0.80;;;13.90;99.90;;;;;;4982089;28;20191;-54
2022/09/11 07:47:00;;;;;;;6.93;1.42;;;13.90;99.90;;;;;;4964917;28;20805;-54
2022/09/11 07:49:30;;;;;;;2.78;1.17;;;14.10;99.90;;;;;;4982471;28;20202;-53
2022/09/11 07:51:58;;;;;;;1.25;1.05;;;14.20;99.90;;;;;;4964993;28;20064;-53
2022/09/11 07:54:37;;;;;;;2.30;0.90;;;14.30;99.90;;;;;;4982374;28;20226;-53
2022/09/11 07:57:05;;;;;;;2.72;1.20;;;14.40;99.90;;;;;;4975855;28;20057;-54
2022/09/11 07:59:33;;;;;;;5.40;1.05;;;14.40;99.90;;;;;;4969298;28;20575;-52
2022/09/11 08:02:01;;;;;;;3.53;1.33;;;14.50;99.90;;;;;;4975239;28;20049;-54
2022/09/11 08:04:29;;;;;;;3.55;1.00;;;14.60;99.90;;;;;;4971568;28;20037;-53
2022/09/11 08:06:56;;;;;;;2.55;1.10;;;14.60;99.90;;;;;;4983888;28;20152;-54
2022/09/11 08:09:29;;;;;;;2.03;0.80;;;14.70;99.90;;;;;;4979787;28;20370;-53
2022/09/11 08:12:00;;;;;;;3.97;1.00;;;14.80;99.90;;;;;;4982806;28;20227;-54
2022/09/11 08:14:30;;;;;;;2.70;0.80;;;14.80;99.90;;;;;;4948848;28;20037;-54
2022/09/11 08:17:04;;;;;;;4.10;1.10;;;14.90;99.90;;;;;;4972482;28;21005;-55
2022/09/11 08:19:32;;;;;;;5.65;1.63;;;15.00;99.90;;;;;;4971153;28;20750;-53
2022/09/11 08:22:00;;;;;;;1.75;1.17;;;15.10;99.90;;;;;;4974929;28;20834;-53
2022/09/11 08:24:33;;;;;;;1.33;0.80;;;15.30;99.90;;;;;;4980177;28;20061;-54
2022/09/11 08:27:04;;;;;;;5.32;1.65;;;15.40;99.90;;;;;;4965124;28;20155;-53
2022/09/11 08:29:35;;;;;;;2.63;1.05;;;15.50;99.90;;;;;;4980549;28;20987;-53
2022/09/11 08:32:05;;;;;;;8.80;1.10;;;15.60;99.90;;;;;;4971160;28;20257;-54
2022/09/11 08:34:32;;;;;;;1.13;1.00;;;15.70;99.90;;;;;;4979780;28;20045;-54
2022/09/11 08:36:59;;;;;;;2.85;0.95;;;15.70;99.90;;;;;;4966460;28;20116;-54
2022/09/11 08:39:30;;;;;;;2.58;1.30;;;15.90;99.90;;;;;;4968987;28;20038;-54
2022/09/11 08:42:13;;;;;;;1.88;1.10;;;16.10;99.90;;;;;;4963941;28;20380;-53
2022/09/11 08:44:52;;;;;;;3.40;1.10;;;16.20;99.90;;;;;;4970084;28;21152;-53
2022/09/11 08:47:27;;;;;;;3.42;0.98;;;16.30;99.90;;;;;;4958518;28;20045;-55
2022/09/11 08:50:06;;;;;;;4.10;1.10;;;16.40;99.90;;;;;;4970249;28;20160;-53
2022/09/11 08:52:36;;;;;;;0.90;0.80;;;16.40;99.90;;;;;;4949034;28;20060;-54
2022/09/11 08:55:23;;;;;;;5.15;1.17;;;16.30;99.90;;;;;;4963719;28;20513;-53
2022/09/11 08:58:24;;;;;;;5.55;1.00;;;16.20;99.90;;;;;;4970194;28;20365;-54
2022/09/11 09:01:26;;;;;;;3.20;1.13;;;16.20;99.90;;;;;;4980820;28;20049;-53
2022/09/11 09:04:25;;;;;;;2.92;0.90;;;16.30;99.90;;;;;;4968902;28;20853;-53
2022/09/11 09:07:11;;;;;;;8.80;1.80;;;16.20;99.90;;;;;;4980219;28;20049;-57
2022/09/11 09:10:00;;;;;;;3.83;1.30;;;16.20;99.90;;;;;;4963047;28;20041;-55
2022/09/11 09:12:40;;;;;;;2.08;0.90;;;16.30;99.90;;;;;;4973698;28;21005;-55
2022/09/11 09:15:43;;;;;;;5.80;1.10;;;16.30;99.90;;;;;;4966125;28;20360;-55
2022/09/11 09:18:24;;;;;;;2.30;1.15;;;16.30;99.90;;;;;;4964238;28;20068;-55
2022/09/11 09:21:09;;;;;;;3.03;1.20;;;16.40;99.90;;;;;;4966569;28;20104;-53
2022/09/11 09:23:45;;;;;;;2.20;0.82;;;16.40;99.90;;;;;;4974276;28;20045;-54
2022/09/11 09:26:16;;;;;;;2.70;0.88;;;16.40;99.90;;;;;;4975107;28;20213;-54
2022/09/11 09:28:49;;;;;;;4.55;1.10;;;16.50;99.90;;;;;;4967800;28;20121;-57
2022/09/11 09:31:20;;;;;;;2.15;1.05;;;16.60;99.90;;;;;;4977303;28;20884;-56
2022/09/11 09:34:03;;;;;;;3.38;1.10;;;16.70;99.90;;;;;;4982800;28;20142;-59
2022/09/11 09:36:38;;;;;;;1.40;0.70;;;16.70;99.90;;;;;;4973964;28;20053;-56
2022/09/11 09:39:13;;;;;;;3.67;1.35;;;16.80;99.90;;;;;;4975855;28;20870;-58
2022/09/11 09:41:53;;;;;;;1.08;0.70;;;16.90;99.90;;;;;;4982627;28;20106;-56
2022/09/11 09:44:31;;;;;;;2.70;1.02;;;17.00;99.90;;;;;;4988282;28;20099;-59
2022/09/11 09:46:58;;;;;;;;;;;17.20;99.90;;;;;;4975551;28;20827;-55
2022/09/11 09:49:31;;;;;;;3.38;1.15;;;17.30;99.90;;;;;;4976458;28;19925;-56
2022/09/11 09:52:12;;;;;;;2.20;1.15;;;17.60;99.90;;;;;;4974032;28;20328;-55
2022/09/11 09:54:39;;;;;;;0.70;0.70;;;17.70;99.90;;;;;;4973807;28;20958;-55
2022/09/11 09:57:10;;;;;;;1.58;1.00;;;17.80;99.90;;;;;;4972442;28;20049;-56
2022/09/11 09:59:46;;;;;;;3.35;1.10;;;17.90;99.90;;;;;;4980942;28;20258;-55
2022/09/11 10:02:36;;;;;;;2.20;0.90;;;18.00;99.90;;;;;;4971526;28;20037;-56
2022/09/11 10:05:19;;;;;;;1.40;0.70;;;18.00;99.90;;;;;;4978395;28;20033;-55
2022/09/11 10:07:56;;;;;;;3.53;0.95;;;18.00;99.90;;;;;;4977133;28;20045;-56
2022/09/11 10:10:27;;;;;;;0.63;0.60;;;17.90;99.90;;;;;;4989861;28;20053;-56
2022/09/11 10:13:00;;;;;;;3.35;0.88;;;17.80;99.90;;;;;;4977638;28;20221;-56
2022/09/11 10:15:48;;;;;;;2.10;0.77;;;17.80;99.90;;;;;;4978975;28;20798;-56
2022/09/11 10:18:31;;;;;;;3.83;1.13;;;17.90;99.90;;;;;;4976949;28;20037;-56
2022/09/11 10:21:10;;;;;;;2.05;1.00;;;17.90;99.90;;;;;;4977382;28;20525;-53
2022/09/11 10:23:49;;;;;;;5.50;1.00;;;18.00;99.90;;;;;;4974527;28;20687;-56
2022/09/11 10:26:24;;;;;;;2.83;1.00;;;18.10;99.90;;;;;;4970557;28;20890;-54
2022/09/11 10:28:57;;;;;;;2.58;0.95;;;18.40;99.90;;;;;;4974501;28;20140;-54
2022/09/11 10:31:25;;;;;;;2.03;0.60;;;18.80;99.90;;;;;;4977315;28;20037;-55
2022/09/11 10:33:59;;;;;;;2.58;0.75;;;19.40;99.90;;;;;;4977667;28;20945;-55
2022/09/11 10:36:28;;;;;;;1.85;0.77;;;20.10;99.90;;;;;;4971777;28;20076;-53
2022/09/11 10:39:01;;;;;;;0.73;0.60;;;20.60;99.90;;;;;;4975161;28;20064;-53
2022/09/11 10:41:33;;;;;;;1.92;0.80;;;21.20;99.90;;;;;;4980003;28;20037;-54
2022/09/11 10:44:06;;;;;;;1.95;0.63;;;21.70;99.90;;;;;;4976670;28;20406;-55
2022/09/11 10:46:38;;;;;;;0.93;0.50;;;22.10;99.90;;;;;;4980762;28;21020;-55
2022/09/11 10:49:15;;;;;;;1.58;0.70;;;22.30;99.90;;;;;;4969877;28;20147;-54
2022/09/11 10:52:15;;;;;;;2.47;0.63;;;22.40;95.20;;;;;;4979503;28;20405;-56
2022/09/11 10:55:11;;;;;;;2.08;0.73;;;22.50;95.50;;;;;;4974690;28;20049;-56
2022/09/11 10:57:50;;;;;;;1.95;0.85;;;22.30;90.70;;;;;;4974287;28;20060;-57
2022/09/11 11:00:22;;;;;;;1.58;0.60;;;22.00;92.20;;;;;;4963551;28;20597;-56
2022/09/11 11:02:53;;;;;;;0.73;0.40;;;21.70;92.40;;;;;;4975631;28;20049;-56
2022/09/11 11:05:33;;;;;;;1.58;0.70;;;21.40;97.20;;;;;;4983320;28;20432;-56
2022/09/11 11:08:19;;;;;;;1.95;1.02;;;21.20;93.70;;;;;;4979026;28;20142;-56
2022/09/11 11:11:00;;;;;;;1.70;0.70;;;20.90;96.00;;;;;;4975925;28;20041;-56
2022/09/11 11:13:49;;;;;;;0.68;0.55;;;20.80;98.10;;;;;;4988924;28;20907;-56
2022/09/11 11:16:38;;;;;;;3.25;0.52;;;20.70;99.90;;;;;;4977581;28;20884;-56
2022/09/11 11:19:14;;;;;;;4.60;0.52;;;20.90;99.90;;;;;;4981274;28;20228;-56
2022/09/11 11:21:48;;;;;;;2.13;0.73;;;21.00;99.90;;;;;;4975037;28;20740;-56
2022/09/11 11:25:06;;;;;;;1.17;0.50;;;21.20;98.90;;;;;;4970032;28;20705;-57
2022/09/11 11:27:52;;;;;;;0.73;0.45;;;21.30;99.90;;;;;;4929540;28;20242;-57
2022/09/11 11:30:22;;;;;;;4.68;0.90;;;21.20;99.90;;;;;;4957614;28;20055;-56
2022/09/11 11:32:55;;;;;;;1.98;1.25;;;21.20;99.90;;;;;;4984007;28;20049;-57
2022/09/11 11:35:32;;;;;;;2.83;1.10;;;21.30;99.90;;;;;;4974726;28;21023;-56
2022/09/11 11:38:19;;;;;;;1.85;1.20;;;21.40;99.90;;;;;;4974421;28;20187;-54
2022/09/11 11:40:52;;;;;;;4.63;2.50;;;21.70;99.90;;;;;;4969903;28;20187;-56
2022/09/11 11:43:26;;;;;;;4.68;1.05;;;22.00;99.90;;;;;;4965561;28;20318;-58
2022/09/11 11:46:21;;;;;;;3.25;1.58;;;22.40;99.90;;;;;;4967831;28;20056;-57
2022/09/11 11:48:57;;;;;;;5.85;1.58;;;22.70;99.90;;;;;;4957566;28;20736;-54
2022/09/11 11:51:30;;;;;;;2.63;1.03;;;23.00;99.90;;;;;;4961557;28;20490;-55
2022/09/11 11:54:07;;;;;;;3.67;1.17;;;23.00;99.90;;;;;;4981076;28;20052;-55
2022/09/11 11:56:47;;;;;;;2.53;0.93;;;22.90;99.90;;;;;;4970439;28;20049;-55
2022/09/11 11:59:43;;;;;;;2.67;0.90;;;22.90;99.50;;;;;;4974037;28;20127;-55
2022/09/11 12:02:22;;;;;;;2.22;1.17;;;22.80;99.10;;;;;;4961130;28;20377;-65
2022/09/11 12:05:01;;;;;;;5.40;1.15;;;23.00;99.90;;;;;;4974671;28;20103;-67
2022/09/11 12:07:31;;;;;;;6.47;1.50;;;23.20;99.90;;;;;;4980239;28;20306;-58
2022/09/11 12:10:01;;;;;;;4.13;1.17;;;23.50;96.70;;;;;;4975421;28;20040;-58
2022/09/11 12:12:34;;;;;;;3.13;1.50;;;23.70;99.20;;;;;;4951641;28;20037;-55
2022/09/11 12:15:07;;;;;;;2.30;0.95;;;23.80;98.70;;;;;;4977913;28;20422;-57
2022/09/11 12:17:38;;;;;;;1.33;0.70;;;23.60;91.80;;;;;;4971046;28;20373;-57
2022/09/11 12:20:09;;;;;;;4.97;0.90;;;23.30;93.00;;;;;;4975092;28;20205;-58
2022/09/11 12:22:45;;;;;;;3.90;1.02;;;22.90;96.80;;;;;;4971863;28;20033;-57
2022/09/11 12:25:22;;;;;;;2.35;1.40;;;22.70;99.90;;;;;;4990024;28;20047;-56
2022/09/11 12:28:23;;;;;;;4.15;1.67;;;22.30;99.90;;;;;;4974515;28;20317;-57
2022/09/11 12:31:05;;;;;;;2.80;1.10;;;21.90;99.90;;;;;;4982357;28;20049;-56
2022/09/11 12:33:47;;;;;;;2.45;1.27;;;21.60;99.90;;;;;;4971113;28;20377;-56
2022/09/11 12:36:42;;;;;;;2.92;1.15;;;21.30;99.90;;;;;;4977834;28;20072;-58
2022/09/11 12:39:48;;;;;;;9.10;1.35;;;21.20;99.90;;;;;;4973944;28;20044;-56
2022/09/11 12:42:21;;;;;;;5.10;1.60;;;21.40;99.90;;;;;;4961473;28;20384;-57
2022/09/11 12:44:48;;;;;;;3.35;1.08;;;21.80;99.90;;;;;;4974666;28;20209;-57
2022/09/11 12:47:37;;;;;;;3.30;1.13;;;22.20;99.90;;;;;;4962781;28;20037;-57
2022/09/11 12:50:11;;;;;;;1.85;1.08;;;22.60;99.90;;;;;;4973386;28;20215;-57
2022/09/11 12:52:47;;;;;;;3.45;1.25;;;23.10;99.90;;;;;;4975441;28;20044;-56
2022/09/11 12:55:34;;;;;;;1.55;0.55;;;23.40;99.90;;;;;;4975997;28;20212;-58
2022/09/11 12:58:27;;;;;;;2.63;1.00;;;23.50;98.90;;;;;;4977056;28;20037;-56
2022/09/11 13:01:29;;;;;;;5.88;1.05;;;23.40;98.40;;;;;;4970268;28;20901;-57
2022/09/11 13:04:08;;;;;;;2.47;1.17;;;23.30;98.70;;;;;;4969590;28;20319;-58
2022/09/11 13:06:49;;;;;;;2.38;0.82;;;23.30;95.20;;;;;;4975467;28;20408;-57
2022/09/11 13:09:25;;;;;;;5.97;1.00;;;23.20;92.70;;;;;;4987729;28;20046;-57
2022/09/11 13:11:55;;;;;;;2.10;0.90;;;22.90;93.70;;;;;;4977147;28;20247;-55
2022/09/11 13:14:29;;;;;;;1.90;0.80;;;22.70;94.10;;;;;;4981181;28;20045;-57
2022/09/11 13:16:59;;;;;;;1.88;0.75;;;22.60;97.20;;;;;;4968285;28;20241;-57
2022/09/11 13:19:37;;;;;;;1.85;0.77;;;22.60;99.90;;;;;;4972709;28;20049;-57
2022/09/11 13:22:39;;;;;;;4.85;0.93;;;22.80;96.90;;;;;;4975507;28;20227;-57
2022/09/11 13:25:17;;;;;;;1.75;0.98;;;23.00;95.60;;;;;;4930904;28;20051;-57
2022/09/11 13:27:53;;;;;;;3.08;1.08;;;23.20;93.40;;;;;;4971948;28;20045;-56